createdAt,value
2023-05-01T00:00:53.912Z,99255.94
2023-05-01T00:03:21.021Z,99255.94
2023-05-01T00:05:48.367Z,99256.78
2023-05-01T00:08:16.045Z,99254.53
2023-05-01T00:10:42.931Z,99253.91
2023-05-01T00:13:10.120Z,99252.84
2023-05-01T00:15:36.870Z,99249.09
2023-05-01T00:18:03.907Z,99243.19
2023-05-01T00:20:31.138Z,99235.19
2023-05-01T00:22:58.156Z,99237.41
2023-05-01T00:25:24.973Z,99242.41
2023-05-01T00:27:52.030Z,99247.28
2023-05-01T00:30:18.746Z,99237.50
2023-05-01T00:32:45.816Z,99241.25
2023-05-01T00:35:13.378Z,99232.88
2023-05-01T00:37:40.497Z,99228.88
2023-05-01T00:40:08.117Z,99236.13
2023-05-01T00:42:36.316Z,99223.59
2023-05-01T00:45:04.088Z,99222.09
2023-05-01T00:47:31.171Z,99216.19
2023-05-01T00:49:58.203Z,99212.59
2023-05-01T00:52:25.937Z,99210.00
2023-05-01T00:54:52.676Z,99214.66
2023-05-01T00:57:22.892Z,99213.28
2023-05-01T00:59:49.622Z,99218.06
2023-05-01T01:02:16.626Z,99216.19
2023-05-01T01:04:44.867Z,99220.44
2023-05-01T01:07:21.497Z,99217.44
2023-05-01T01:10:03.337Z,99215.59
2023-05-01T01:13:01.411Z,99216.91
2023-05-01T01:15:35.428Z,99216.78
2023-05-01T01:18:12.699Z,99210.28
2023-05-01T01:21:06.993Z,99217.00
2023-05-01T01:23:40.167Z,99213.34
2023-05-01T01:26:25.094Z,99212.38
2023-05-01T01:29:36.783Z,99214.22
2023-05-01T01:32:10.953Z,99200.63
2023-05-01T01:35:01.038Z,99211.88
2023-05-01T01:37:37.239Z,99215.41
2023-05-01T01:40:09.928Z,99209.69
2023-05-01T01:42:38.688Z,99213.59
2023-05-01T01:45:10.879Z,99205.50
2023-05-01T01:47:37.708Z,99208.41
2023-05-01T01:50:05.511Z,99210.66
2023-05-01T01:52:33.862Z,99203.66
2023-05-01T01:55:05.282Z,99205.06
2023-05-01T01:57:32.100Z,99199.00
2023-05-01T01:59:59.154Z,99198.81
2023-05-01T02:02:27.238Z,99197.63
2023-05-01T02:04:56.745Z,99200.72
2023-05-01T02:07:23.505Z,99194.78
2023-05-01T02:09:50.870Z,99193.94
2023-05-01T02:12:18.321Z,99192.66
2023-05-01T02:14:45.389Z,99191.56
2023-05-01T02:17:12.085Z,99187.38
2023-05-01T02:19:40.534Z,99176.91
2023-05-01T02:22:07.688Z,99175.84
2023-05-01T02:24:34.872Z,99175.16
2023-05-01T02:27:06.504Z,99165.56
2023-05-01T02:29:34.202Z,99175.78
2023-05-01T02:32:01.332Z,99169.63
2023-05-01T02:34:28.375Z,99167.34
2023-05-01T02:36:55.119Z,99171.78
2023-05-01T02:39:22.414Z,99166.59
2023-05-01T02:41:49.296Z,99166.81
2023-05-01T02:44:16.298Z,99166.91
2023-05-01T02:46:44.904Z,99164.97
2023-05-01T02:49:11.916Z,99163.69
2023-05-01T02:51:38.627Z,99161.19
2023-05-01T02:54:05.661Z,99165.63
2023-05-01T02:56:32.661Z,99162.28
2023-05-01T02:58:59.718Z,99153.09
2023-05-01T03:01:27.938Z,99151.72
2023-05-01T03:03:55.088Z,99157.50
2023-05-01T03:06:21.961Z,99154.34
2023-05-01T03:08:49.006Z,99149.16
2023-05-01T03:11:15.801Z,99154.84
2023-05-01T03:13:43.673Z,99154.66
2023-05-01T03:16:10.469Z,99149.81
2023-05-01T03:18:37.535Z,99153.16
2023-05-01T03:21:04.374Z,99144.44
2023-05-01T03:23:31.525Z,99150.84
2023-05-01T03:25:58.973Z,99145.47
2023-05-01T03:28:26.020Z,99143.31
2023-05-01T03:30:53.354Z,99143.31
2023-05-01T03:33:20.405Z,99145.31
2023-05-01T03:35:48.004Z,99143.81
2023-05-01T03:38:15.270Z,99147.34
2023-05-01T03:40:42.063Z,99133.34
2023-05-01T03:43:09.065Z,99138.53
2023-05-01T03:45:35.759Z,99130.94
2023-05-01T03:48:02.861Z,99130.94
2023-05-01T03:50:29.581Z,99127.81
2023-05-01T03:52:56.610Z,99131.13
2023-05-01T03:55:23.347Z,99132.16
2023-05-01T03:57:50.798Z,99132.53
2023-05-01T04:00:17.566Z,99134.47
2023-05-01T04:02:44.663Z,99124.47
2023-05-01T04:05:11.486Z,99136.19
2023-05-01T04:07:38.543Z,99136.09
2023-05-01T04:10:07.233Z,99134.94
2023-05-01T04:12:34.307Z,99140.97
2023-05-01T04:15:01.150Z,99139.16
2023-05-01T04:17:28.176Z,99138.56
2023-05-01T04:19:55.454Z,99144.63
2023-05-01T04:22:23.414Z,99145.09
2023-05-01T04:24:50.306Z,99147.09
2023-05-01T04:27:17.876Z,99146.91
2023-05-01T04:29:44.561Z,99152.94
2023-05-01T04:32:11.971Z,99145.69
2023-05-01T04:34:38.889Z,99145.78
2023-05-01T04:37:07.845Z,99144.53
2023-05-01T04:39:36.315Z,99146.34
2023-05-01T04:42:03.991Z,99150.84
2023-05-01T04:44:31.070Z,99152.16
2023-05-01T04:46:58.232Z,99152.84
2023-05-01T04:49:24.944Z,99153.91
2023-05-01T04:51:52.026Z,99148.53
2023-05-01T04:54:18.769Z,99152.94
2023-05-01T04:56:45.804Z,99155.00
2023-05-01T04:59:12.500Z,99149.75
2023-05-01T05:01:39.598Z,99150.53
2023-05-01T05:04:06.569Z,99146.53
2023-05-01T05:06:33.790Z,99152.66
2023-05-01T05:09:00.546Z,99151.72
2023-05-01T05:11:27.783Z,99148.56
2023-05-01T05:13:54.510Z,99150.88
2023-05-01T05:16:21.626Z,99154.19
2023-05-01T05:18:48.392Z,99146.78
2023-05-01T05:21:15.391Z,99145.41
2023-05-01T05:23:42.151Z,99145.84
2023-05-01T05:26:09.176Z,99147.38
2023-05-01T05:28:35.885Z,99144.16
2023-05-01T05:31:02.911Z,99139.31
2023-05-01T05:33:29.969Z,99135.09
2023-05-01T05:35:58.633Z,99136.38
2023-05-01T05:38:25.360Z,99126.13
2023-05-01T05:40:54.214Z,99133.91
2023-05-01T05:43:21.133Z,99128.19
2023-05-01T05:45:48.162Z,99133.88
2023-05-01T05:48:15.034Z,99120.94
2023-05-01T05:50:42.078Z,99123.94
2023-05-01T05:53:09.982Z,99120.03
2023-05-01T05:55:36.986Z,99116.69
2023-05-01T05:58:03.690Z,99118.81
2023-05-01T06:00:30.918Z,99109.63
2023-05-01T06:02:58.077Z,99120.63
2023-05-01T06:05:25.264Z,99112.16
2023-05-01T06:07:52.070Z,99113.56
2023-05-01T06:10:19.388Z,99120.09
2023-05-01T06:12:53.729Z,99111.66
2023-05-01T06:15:29.603Z,99113.75
2023-05-01T06:17:56.788Z,99123.25
2023-05-01T06:20:23.820Z,99115.47
2023-05-01T06:22:50.671Z,99117.69
2023-05-01T06:25:17.767Z,99111.94
2023-05-01T06:27:44.469Z,99110.50
2023-05-01T06:30:11.733Z,99123.41
2023-05-01T06:32:38.484Z,99117.56
2023-05-01T06:35:06.315Z,99119.53
2023-05-01T06:37:33.053Z,99113.78
2023-05-01T06:40:00.361Z,99114.03
2023-05-01T06:42:27.077Z,99114.66
2023-05-01T06:44:54.098Z,99123.63
2023-05-01T06:47:21.498Z,99117.63
2023-05-01T06:49:48.776Z,99115.44
2023-05-01T06:52:15.463Z,99109.41
2023-05-01T06:54:42.528Z,99103.38
2023-05-01T06:57:09.250Z,99104.84
2023-05-01T06:59:36.440Z,99100.44
2023-05-01T07:02:03.176Z,99096.25
2023-05-01T07:04:31.464Z,99098.22
2023-05-01T07:06:58.204Z,99096.88
2023-05-01T07:09:25.463Z,99100.78
2023-05-01T07:11:52.227Z,99098.56
2023-05-01T07:14:19.198Z,99097.94
2023-05-01T07:16:46.728Z,99098.44
2023-05-01T07:19:14.019Z,99094.22
2023-05-01T07:21:41.365Z,99091.59
2023-05-01T07:24:08.424Z,99097.09
2023-05-01T07:26:35.262Z,99100.03
2023-05-01T07:29:02.311Z,99091.50
2023-05-01T07:31:29.006Z,99092.84
2023-05-01T07:33:56.749Z,99088.75
2023-05-01T07:36:24.056Z,99090.28
2023-05-01T07:38:51.042Z,99092.34
2023-05-01T07:41:17.847Z,99091.06
2023-05-01T07:43:44.833Z,99082.44
2023-05-01T07:46:11.666Z,99085.81
2023-05-01T07:48:39.104Z,99085.88
2023-05-01T07:51:05.992Z,99081.28
2023-05-01T07:53:33.230Z,99075.94
2023-05-01T07:56:09.772Z,99073.84
2023-05-01T07:58:37.212Z,99073.59
2023-05-01T08:01:04.053Z,99072.63
2023-05-01T08:03:31.442Z,99076.66
2023-05-01T08:05:58.494Z,99081.25
2023-05-01T08:08:25.544Z,99073.28
2023-05-01T08:10:52.661Z,99064.31
2023-05-01T08:13:19.650Z,99069.91
2023-05-01T08:15:47.213Z,99066.50
2023-05-01T08:18:20.230Z,99064.81
2023-05-01T08:20:50.712Z,99063.69
2023-05-01T08:23:17.814Z,99063.56
2023-05-01T08:25:46.946Z,99061.56
2023-05-01T08:28:14.753Z,99058.56
2023-05-01T08:30:41.532Z,99058.53
2023-05-01T08:33:08.429Z,99058.94
2023-05-01T08:35:35.578Z,99052.94
2023-05-01T08:38:02.292Z,99050.66
2023-05-01T08:40:31.977Z,99045.34
2023-05-01T08:43:00.689Z,99045.50
2023-05-01T08:45:27.844Z,99044.78
2023-05-01T08:47:55.127Z,99046.47
2023-05-01T08:50:22.807Z,99049.91
2023-05-01T08:52:50.941Z,99048.47
2023-05-01T08:55:17.976Z,99050.72
2023-05-01T08:57:48.224Z,99051.31
2023-05-01T09:00:19.164Z,99053.53
2023-05-01T09:02:47.167Z,99043.22
2023-05-01T09:05:18.373Z,99045.75
2023-05-01T09:07:48.014Z,99039.00
2023-05-01T09:10:19.065Z,99034.69
2023-05-01T09:12:47.752Z,99032.06
2023-05-01T09:15:15.025Z,99029.25
2023-05-01T09:17:42.174Z,99029.34
2023-05-01T09:20:09.975Z,99040.50
2023-05-01T09:22:36.915Z,99032.72
2023-05-01T09:25:04.408Z,99030.38
2023-05-01T09:27:35.312Z,99028.41
2023-05-01T09:30:02.572Z,99035.06
2023-05-01T09:32:29.423Z,99031.75
2023-05-01T09:35:09.396Z,99021.25
2023-05-01T09:37:36.643Z,99024.41
2023-05-01T09:40:14.309Z,99023.84
2023-05-01T09:42:51.502Z,99026.69
2023-05-01T09:45:19.291Z,99026.75
2023-05-01T09:47:46.332Z,99023.34
2023-05-01T09:50:35.110Z,99027.22
2023-05-01T09:53:02.769Z,99015.16
2023-05-01T09:55:30.114Z,99014.66
2023-05-01T09:57:58.768Z,99016.91
2023-05-01T10:00:27.315Z,99007.75
2023-05-01T10:02:54.161Z,99010.38
2023-05-01T10:05:21.447Z,99010.44
2023-05-01T10:08:02.480Z,99013.19
2023-05-01T10:10:29.740Z,99014.75
2023-05-01T10:12:56.612Z,99009.28
2023-05-01T10:15:26.965Z,99012.03
2023-05-01T10:17:54.313Z,98996.00
2023-05-01T10:20:21.861Z,99003.50
2023-05-01T10:22:49.197Z,98997.88
2023-05-01T10:25:16.803Z,98988.84
2023-05-01T10:27:43.617Z,98984.25
2023-05-01T10:30:11.293Z,98991.25
2023-05-01T10:32:38.274Z,98981.66
2023-05-01T10:35:12.668Z,98986.06
2023-05-01T10:37:48.717Z,98976.00
2023-05-01T10:40:41.039Z,98975.28
2023-05-01T10:43:18.045Z,98981.41
2023-05-01T10:45:45.706Z,98970.56
2023-05-01T10:48:12.898Z,98968.84
2023-05-01T10:51:20.462Z,98970.56
2023-05-01T10:54:13.094Z,98967.06
2023-05-01T10:56:41.573Z,98963.41
2023-05-01T10:59:09.129Z,98956.53
2023-05-01T11:01:45.110Z,98942.16
2023-05-01T11:04:24.805Z,98947.94
2023-05-01T11:07:11.186Z,98940.47
2023-05-01T11:09:54.280Z,98939.38
2023-05-01T11:12:46.403Z,98923.22
2023-05-01T11:15:25.042Z,98924.88
2023-05-01T11:17:52.479Z,98923.91
2023-05-01T11:20:25.156Z,98915.63
2023-05-01T11:22:53.154Z,98917.81
2023-05-01T11:25:33.225Z,98910.16
2023-05-01T11:28:01.842Z,98901.34
2023-05-01T11:30:41.245Z,98900.41
2023-05-01T11:33:10.645Z,98894.47
2023-05-01T11:35:39.099Z,98886.31
2023-05-01T11:38:06.203Z,98892.47
2023-05-01T11:40:34.425Z,98883.56
2023-05-01T11:43:05.296Z,98883.84
2023-05-01T11:45:32.202Z,98877.41
2023-05-01T11:48:01.322Z,98873.66
2023-05-01T11:50:37.568Z,98872.72
2023-05-01T11:53:08.778Z,98869.84
2023-05-01T11:55:35.783Z,98872.50
2023-05-01T11:58:04.965Z,98869.91
2023-05-01T12:00:33.865Z,98865.50
2023-05-01T12:03:14.578Z,98859.03
2023-05-01T12:05:45.374Z,98862.25
2023-05-01T12:08:19.365Z,98855.09
2023-05-01T12:10:56.231Z,98863.19
2023-05-01T12:13:23.704Z,98861.16
2023-05-01T12:15:54.498Z,98856.09
2023-05-01T12:18:21.984Z,98849.63
2023-05-01T12:20:53.020Z,98849.03
2023-05-01T12:23:31.684Z,98849.31
2023-05-01T12:25:58.446Z,98850.41
2023-05-01T12:28:27.421Z,98845.13
2023-05-01T12:30:57.740Z,98832.69
2023-05-01T12:33:24.732Z,98839.22
2023-05-01T12:35:51.680Z,98831.03
2023-05-01T12:38:22.573Z,98829.34
2023-05-01T12:40:53.801Z,98823.28
2023-05-01T12:43:21.775Z,98815.47
2023-05-01T12:45:53.399Z,98819.72
2023-05-01T12:48:20.775Z,98800.06
2023-05-01T12:50:54.312Z,98810.22
2023-05-01T12:53:23.283Z,98803.03
2023-05-01T12:55:51.839Z,98799.88
2023-05-01T12:58:19.056Z,98793.94
2023-05-01T13:00:46.718Z,98801.59
2023-05-01T13:03:16.982Z,98797.78
2023-05-01T13:06:00.331Z,98785.75
2023-05-01T13:08:31.129Z,98783.00
2023-05-01T13:11:00.392Z,98787.25
2023-05-01T13:13:31.744Z,98786.66
2023-05-01T13:16:12.364Z,98783.25
2023-05-01T13:18:49.954Z,98778.41
2023-05-01T13:21:21.821Z,98777.13
2023-05-01T13:23:56.269Z,98775.47
2023-05-01T13:26:31.480Z,98771.00
2023-05-01T13:29:00.047Z,98766.53
2023-05-01T13:31:26.923Z,98767.00
2023-05-01T13:33:54.673Z,98763.16
2023-05-01T13:36:25.793Z,98760.63
2023-05-01T13:38:56.224Z,98751.53
2023-05-01T13:41:25.799Z,98751.31
2023-05-01T13:43:54.092Z,98750.25
2023-05-01T13:46:22.847Z,98742.44
2023-05-01T13:48:50.122Z,98750.47
2023-05-01T13:51:26.451Z,98740.09
2023-05-01T13:53:54.248Z,98744.53
2023-05-01T13:56:21.926Z,98744.53
2023-05-01T13:58:50.376Z,98743.91
2023-05-01T14:01:19.023Z,98739.03
2023-05-01T14:03:46.371Z,98736.47
2023-05-01T14:06:14.065Z,98729.28
2023-05-01T14:08:41.189Z,98730.75
2023-05-01T14:11:08.287Z,98733.94
2023-05-01T14:13:45.546Z,98727.16
2023-05-01T14:16:22.277Z,98726.75
2023-05-01T14:18:49.372Z,98710.84
2023-05-01T14:21:17.230Z,98710.22
2023-05-01T14:23:44.335Z,98706.16
2023-05-01T14:26:11.691Z,98702.56
2023-05-01T14:28:41.585Z,98689.63
2023-05-01T14:31:08.776Z,98697.91
2023-05-01T14:33:41.664Z,98690.50
2023-05-01T14:36:08.369Z,98693.69
2023-05-01T14:38:39.356Z,98684.13
2023-05-01T14:41:06.440Z,98684.78
2023-05-01T14:43:33.828Z,98678.19
2023-05-01T14:46:00.733Z,98674.59
2023-05-01T14:48:35.199Z,98675.84
2023-05-01T14:51:07.320Z,98666.75
2023-05-01T14:53:34.322Z,98661.88
2023-05-01T14:56:01.074Z,98661.22
2023-05-01T14:58:28.105Z,98661.66
2023-05-01T15:00:55.257Z,98668.25
2023-05-01T15:03:22.427Z,98662.53
2023-05-01T15:05:49.247Z,98661.03
2023-05-01T15:08:16.726Z,98663.38
2023-05-01T15:10:44.993Z,98661.44
2023-05-01T15:13:12.276Z,98666.31
2023-05-01T15:15:38.986Z,98664.63
2023-05-01T15:18:06.485Z,98655.72
2023-05-01T15:20:33.175Z,98655.94
2023-05-01T15:23:00.229Z,98658.06
2023-05-01T15:25:27.029Z,98652.56
2023-05-01T15:27:54.622Z,98653.59
2023-05-01T15:30:21.550Z,98654.47
2023-05-01T15:32:48.698Z,98653.38
2023-05-01T15:35:16.595Z,98655.31
2023-05-01T15:37:43.662Z,98656.34
2023-05-01T15:40:10.550Z,98651.91
2023-05-01T15:42:37.632Z,98653.81
2023-05-01T15:45:04.802Z,98643.66
2023-05-01T15:47:31.958Z,98642.56
2023-05-01T15:49:58.888Z,98641.53
2023-05-01T15:52:27.153Z,98644.06
2023-05-01T15:54:54.977Z,98641.94
2023-05-01T15:57:22.032Z,98649.56
2023-05-01T15:59:53.879Z,98639.81
2023-05-01T16:02:21.711Z,98639.16
2023-05-01T16:04:48.838Z,98641.72
2023-05-01T16:07:16.002Z,98641.94
2023-05-01T16:09:42.978Z,98639.34
2023-05-01T16:12:10.107Z,98640.22
2023-05-01T16:14:39.369Z,98631.94
2023-05-01T16:17:06.670Z,98630.44
2023-05-01T16:19:33.655Z,98628.72
2023-05-01T16:22:03.281Z,98616.22
2023-05-01T16:24:36.777Z,98623.22
2023-05-01T16:27:03.983Z,98628.28
2023-05-01T16:29:34.448Z,98615.81
2023-05-01T16:32:03.477Z,98622.09
2023-05-01T16:34:30.237Z,98613.00
2023-05-01T16:36:57.364Z,98615.31
2023-05-01T16:39:24.326Z,98618.72
2023-05-01T16:41:52.695Z,98621.06
2023-05-01T16:44:20.533Z,98621.47
2023-05-01T16:46:58.580Z,98620.16
2023-05-01T16:49:27.614Z,98618.50
2023-05-01T16:51:58.718Z,98622.06
2023-05-01T16:54:31.993Z,98611.66
2023-05-01T16:56:59.418Z,98613.09
2023-05-01T16:59:28.064Z,98619.63
2023-05-01T17:01:55.368Z,98621.72
2023-05-01T17:04:22.346Z,98620.88
2023-05-01T17:06:49.618Z,98616.97
2023-05-01T17:09:16.537Z,98610.66
2023-05-01T17:11:43.587Z,98609.81
2023-05-01T17:14:10.395Z,98612.09
2023-05-01T17:16:37.435Z,98609.94
2023-05-01T17:19:08.800Z,98613.09
2023-05-01T17:21:36.138Z,98613.19
2023-05-01T17:24:03.203Z,98606.44
2023-05-01T17:26:30.258Z,98613.53
2023-05-01T17:28:57.488Z,98611.22
2023-05-01T17:31:24.654Z,98608.41
2023-05-01T17:33:51.449Z,98601.84
2023-05-01T17:36:18.418Z,98605.66
2023-05-01T17:38:45.292Z,98609.44
2023-05-01T17:41:12.358Z,98608.72
2023-05-01T17:43:39.201Z,98616.13
2023-05-01T17:46:06.549Z,98606.94
2023-05-01T17:48:33.332Z,98613.28
2023-05-01T17:51:00.429Z,98613.28
2023-05-01T17:53:27.329Z,98614.47
2023-05-01T17:55:54.385Z,98620.94
2023-05-01T17:58:21.346Z,98619.22
2023-05-01T18:00:48.577Z,98626.72
2023-05-01T18:03:15.536Z,98622.81
2023-05-01T18:05:42.937Z,98621.00
2023-05-01T18:08:09.691Z,98626.22
2023-05-01T18:10:36.770Z,98616.88
2023-05-01T18:13:03.600Z,98622.28
2023-05-01T18:15:30.780Z,98627.50
2023-05-01T18:17:57.589Z,98626.84
2023-05-01T18:20:24.895Z,98629.72
2023-05-01T18:22:54.185Z,98629.44
2023-05-01T18:25:21.327Z,98634.53
2023-05-01T18:27:49.194Z,98627.72
2023-05-01T18:30:16.959Z,98636.34
2023-05-01T18:32:47.381Z,98633.50
2023-05-01T18:35:17.104Z,98633.41
2023-05-01T18:37:44.443Z,98641.34
2023-05-01T18:40:12.646Z,98633.91
2023-05-01T18:42:42.772Z,98633.91
2023-05-01T18:45:10.265Z,98640.97
2023-05-01T18:47:37.096Z,98637.84
2023-05-01T18:50:05.704Z,98637.56
2023-05-01T18:52:32.803Z,98641.09
2023-05-01T18:54:59.925Z,98639.94
2023-05-01T18:57:28.704Z,98642.66
2023-05-01T18:59:55.867Z,98645.31
2023-05-01T19:02:22.953Z,98641.63
2023-05-01T19:04:57.575Z,98645.09
2023-05-01T19:07:26.695Z,98652.38
2023-05-01T19:09:53.932Z,98640.66
2023-05-01T19:12:20.871Z,98644.75
2023-05-01T19:14:48.079Z,98645.28
2023-05-01T19:17:14.897Z,98650.69
2023-05-01T19:19:42.190Z,98648.50
2023-05-01T19:22:09.038Z,98647.16
2023-05-01T19:24:36.968Z,98650.47
2023-05-01T19:27:03.899Z,98642.63
2023-05-01T19:29:31.820Z,98648.28
2023-05-01T19:32:00.308Z,98654.59
2023-05-01T19:34:28.051Z,98655.41
2023-05-01T19:37:00.449Z,98649.00
2023-05-01T19:39:29.132Z,98662.38
2023-05-01T19:41:55.990Z,98658.44
2023-05-01T19:44:23.145Z,98659.16
2023-05-01T19:46:49.968Z,98655.63
2023-05-01T19:49:18.260Z,98660.09
2023-05-01T19:51:46.430Z,98664.06
2023-05-01T19:54:15.464Z,98664.25
2023-05-01T19:56:42.494Z,98657.94
2023-05-01T19:59:10.048Z,98670.94
2023-05-01T20:01:38.829Z,98663.47
2023-05-01T20:04:06.090Z,98658.16
2023-05-01T20:06:34.203Z,98665.00
2023-05-01T20:09:01.383Z,98655.47
2023-05-01T20:11:28.200Z,98665.06
2023-05-01T20:13:55.342Z,98656.22
2023-05-01T20:16:22.519Z,98660.50
2023-05-01T20:18:49.650Z,98657.97
2023-05-01T20:21:16.495Z,98650.28
2023-05-01T20:23:45.220Z,98659.38
2023-05-01T20:26:12.252Z,98658.34
2023-05-01T20:28:39.444Z,98663.81
2023-05-01T20:31:06.269Z,98649.00
2023-05-01T20:33:33.400Z,98651.75
2023-05-01T20:36:01.865Z,98658.06
2023-05-01T20:38:29.027Z,98664.59
2023-05-01T20:40:55.928Z,98659.66
2023-05-01T20:43:23.065Z,98658.31
2023-05-01T20:45:49.904Z,98659.84
2023-05-01T20:48:16.958Z,98662.53
2023-05-01T20:50:45.541Z,98667.50
2023-05-01T20:53:12.583Z,98663.59
2023-05-01T20:55:39.379Z,98656.59
2023-05-01T20:58:07.299Z,98667.00
2023-05-01T21:00:34.113Z,98660.03
2023-05-01T21:03:01.543Z,98661.56
2023-05-01T21:05:28.364Z,98665.84
2023-05-01T21:07:56.760Z,98663.78
2023-05-01T21:10:23.812Z,98660.91
2023-05-01T21:12:51.166Z,98668.06
2023-05-01T21:15:18.006Z,98667.91
2023-05-01T21:17:45.120Z,98669.41
2023-05-01T21:20:19.290Z,98667.72
2023-05-01T21:22:48.599Z,98662.94
2023-05-01T21:25:19.912Z,98667.72
2023-05-01T21:27:46.940Z,98661.75
2023-05-01T21:30:15.119Z,98663.44
2023-05-01T21:32:42.562Z,98662.59
2023-05-01T21:35:11.537Z,98665.81
2023-05-01T21:37:40.126Z,98663.97
2023-05-01T21:40:07.542Z,98670.72
2023-05-01T21:42:35.759Z,98670.72
2023-05-01T21:45:06.917Z,98672.47
2023-05-01T21:47:38.256Z,98671.25
2023-05-01T21:50:06.701Z,98677.19
2023-05-01T21:52:34.713Z,98673.97
2023-05-01T21:55:03.606Z,98668.34
2023-05-01T21:57:31.696Z,98670.88
2023-05-01T22:00:01.282Z,98666.59
2023-05-01T22:02:31.476Z,98672.03
2023-05-01T22:04:58.597Z,98674.09
2023-05-01T22:07:25.845Z,98674.41
2023-05-01T22:09:52.643Z,98673.72
2023-05-01T22:12:20.097Z,98683.06
2023-05-01T22:14:47.862Z,98678.50
2023-05-01T22:17:15.072Z,98679.50
2023-05-01T22:19:42.157Z,98675.75
2023-05-01T22:22:09.208Z,98675.56
2023-05-01T22:24:36.260Z,98677.91
2023-05-01T22:27:03.366Z,98674.16
2023-05-01T22:29:30.066Z,98671.41
2023-05-01T22:31:57.241Z,98679.09
2023-05-01T22:34:24.050Z,98679.56
2023-05-01T22:36:51.143Z,98679.41
2023-05-01T22:39:17.889Z,98676.66
2023-05-01T22:41:45.093Z,98680.25
2023-05-01T22:44:11.814Z,98687.69
2023-05-01T22:46:38.923Z,98689.38
2023-05-01T22:49:05.716Z,98680.31
2023-05-01T22:51:32.807Z,98687.41
2023-05-01T22:53:59.509Z,98680.06
2023-05-01T22:56:26.773Z,98683.28
2023-05-01T22:58:55.479Z,98678.50
2023-05-01T23:01:27.137Z,98679.97
2023-05-01T23:03:54.213Z,98678.28
2023-05-01T23:06:21.617Z,98681.47
2023-05-01T23:08:52.609Z,98681.81
2023-05-01T23:11:21.444Z,98677.72
2023-05-01T23:13:49.892Z,98676.88
2023-05-01T23:16:17.176Z,98673.63
2023-05-01T23:18:44.133Z,98686.03
2023-05-01T23:21:12.501Z,98680.25
2023-05-01T23:23:43.152Z,98678.34
2023-05-01T23:26:26.171Z,98673.69
2023-05-01T23:28:53.264Z,98675.88
2023-05-01T23:31:27.158Z,98675.88
2023-05-01T23:33:54.946Z,98669.75
2023-05-01T23:36:22.496Z,98665.28
2023-05-01T23:38:49.736Z,98665.59
2023-05-01T23:41:16.865Z,98659.84
2023-05-01T23:43:46.334Z,98652.88
2023-05-01T23:46:13.783Z,98656.22
2023-05-01T23:48:40.635Z,98658.09
2023-05-01T23:51:07.684Z,98659.09
2023-05-01T23:53:34.429Z,98658.19
2023-05-01T23:56:01.534Z,98656.31
2023-05-01T23:58:28.291Z,98645.06
